Hangzhou, China
Current Conditions -  °F | °C
As of 8:00 AM on Wednesday 26 Nov 2014 (Local Time) from ZSHC Reporting Station
Haze Haze  
Wind Chill: 54°   Ceiling: Unl
Heat Index: 54°   Visibility: 2.5mi
Dew Point: 48°   Wind: 2mph
Humidity: 82%   Direction: NA
Pressure: 30.15"   Gusts: NA
Location:  30.25°N, 120.17°E
Report Text: ZSHC 260000Z VRB01MPS 4000 BR SCT033 12/09 Q1021 NOSIG
Loading
Personal Weather Stations






























Interactive Weather Map New forecast layout! Learn more

10-Day Weather Forecast

Advertisements
Track Severe Weather on mobile